createdAt,value
2017-12-12T00:01:45.694Z,20.30
2017-12-12T00:04:13.633Z,21.87
2017-12-12T00:06:48.323Z,22.25
2017-12-12T00:09:16.257Z,22.65
2017-12-12T00:11:44.160Z,19.62
2017-12-12T00:14:12.127Z,19.92
2017-12-12T00:16:40.297Z,19.98
2017-12-12T00:19:08.245Z,22.40
2017-12-12T00:21:36.218Z,22.87
2017-12-12T00:24:04.102Z,19.80
2017-12-12T00:26:31.994Z,21.60
2017-12-12T00:28:59.898Z,20.88
2017-12-12T00:31:27.828Z,19.83
2017-12-12T00:33:55.738Z,19.15
2017-12-12T00:36:23.648Z,21.08
2017-12-12T00:38:57.666Z,20.17
2017-12-12T00:41:25.681Z,17.80
2017-12-12T00:43:53.584Z,18.00
2017-12-12T00:46:21.470Z,21.33
2017-12-12T00:48:55.526Z,19.05
2017-12-12T00:51:23.450Z,18.98
2017-12-12T00:53:51.361Z,18.70
2017-12-12T00:56:19.285Z,18.95
2017-12-12T00:58:47.226Z,20.92
2017-12-12T01:01:15.124Z,20.00
2017-12-12T01:03:43.037Z,20.98
2017-12-12T01:06:10.954Z,19.58
2017-12-12T01:08:38.864Z,19.27
2017-12-12T01:11:06.789Z,19.40
2017-12-12T01:13:34.664Z,18.98
2017-12-12T01:16:02.609Z,21.58
2017-12-12T01:18:30.516Z,20.88
2017-12-12T01:20:58.416Z,21.77
2017-12-12T01:23:26.413Z,18.75
2017-12-12T01:25:54.403Z,19.52
2017-12-12T01:31:22.903Z,21.08
2017-12-12T01:33:50.817Z,19.15
2017-12-12T01:36:18.734Z,19.70
2017-12-12T01:38:46.632Z,19.87
2017-12-12T01:41:14.538Z,17.52
2017-12-12T01:43:42.438Z,17.90
2017-12-12T01:46:10.395Z,18.98
2017-12-12T01:48:38.323Z,17.52
2017-12-12T01:51:06.238Z,17.05
2017-12-12T01:53:34.159Z,18.45
2017-12-12T01:56:02.100Z,19.90
2017-12-12T01:58:30.031Z,19.70
2017-12-12T02:00:57.952Z,18.67
2017-12-12T02:03:25.881Z,18.30
2017-12-12T02:05:53.796Z,18.40
2017-12-12T02:08:21.706Z,20.25
2017-12-12T02:10:49.633Z,18.20
2017-12-12T02:13:17.627Z,17.73
2017-12-12T02:15:45.584Z,19.20
2017-12-12T02:18:13.520Z,18.87
2017-12-12T02:20:41.442Z,21.67
2017-12-12T02:23:09.392Z,19.12
2017-12-12T02:25:37.338Z,19.52
2017-12-12T02:28:11.348Z,19.52
2017-12-12T02:30:39.269Z,20.00
2017-12-12T02:33:07.315Z,19.15
2017-12-12T02:35:35.248Z,20.85
2017-12-12T02:38:03.160Z,19.95
2017-12-12T02:40:31.103Z,20.85
2017-12-12T02:42:59.030Z,21.20
2017-12-12T02:45:26.937Z,20.40
2017-12-12T02:48:01.530Z,20.02
2017-12-12T02:50:29.469Z,20.17
2017-12-12T02:52:57.399Z,21.00
2017-12-12T02:55:25.296Z,20.83
2017-12-12T03:00:47.700Z,16.90
2017-12-12T03:03:15.645Z,15.85
2017-12-12T03:05:43.613Z,17.30
2017-12-12T03:11:16.666Z,15.30
2017-12-12T03:13:44.529Z,13.75
2017-12-12T03:16:12.393Z,14.05
2017-12-12T03:18:47.179Z,15.63
2017-12-12T03:21:15.051Z,14.70
2017-12-12T03:23:42.871Z,13.75
2017-12-12T03:26:10.709Z,13.98
2017-12-12T03:28:45.512Z,13.30
2017-12-12T03:31:13.374Z,14.27
2017-12-12T03:33:41.240Z,13.82
2017-12-12T03:36:09.126Z,15.85
2017-12-12T03:38:36.919Z,14.13
2017-12-12T03:41:05.609Z,13.45
2017-12-12T03:43:33.458Z,13.32
2017-12-12T03:46:01.325Z,15.43
2017-12-12T03:48:29.176Z,14.20
2017-12-12T03:50:56.988Z,14.65
2017-12-12T03:53:24.831Z,16.17
2017-12-12T03:55:52.716Z,15.73
2017-12-12T03:58:20.556Z,15.57
2017-12-12T04:00:48.400Z,15.02
2017-12-12T04:03:16.284Z,14.63
2017-12-12T04:05:44.132Z,15.07
2017-12-12T04:11:12.329Z,13.25
2017-12-12T04:13:40.193Z,14.00
2017-12-12T04:16:08.055Z,13.60
2017-12-12T04:18:35.920Z,12.85
2017-12-12T04:21:03.786Z,14.85
2017-12-12T04:23:31.637Z,14.82
2017-12-12T04:25:59.496Z,13.02
2017-12-12T04:28:27.352Z,11.70
2017-12-12T04:30:55.205Z,12.80
2017-12-12T04:33:23.035Z,13.32
2017-12-12T04:35:50.881Z,12.85
2017-12-12T04:38:25.282Z,13.88
2017-12-12T04:40:53.144Z,12.80
2017-12-12T04:43:21.008Z,12.45
2017-12-12T04:45:48.832Z,14.23
2017-12-12T04:48:16.680Z,12.37
2017-12-12T04:50:44.509Z,14.50
2017-12-12T04:53:12.369Z,15.00
2017-12-12T04:55:40.223Z,12.75
2017-12-12T04:58:08.088Z,13.73
2017-12-12T05:00:35.924Z,13.62
2017-12-12T05:03:03.779Z,13.57
2017-12-12T05:05:31.621Z,13.55
2017-12-12T05:07:59.466Z,14.20
2017-12-12T05:10:27.279Z,15.00
2017-12-12T05:12:55.120Z,13.90
2017-12-12T05:15:22.958Z,14.13
2017-12-12T05:17:50.825Z,14.90
2017-12-12T05:20:18.681Z,15.65
2017-12-12T05:22:46.546Z,15.10
2017-12-12T05:25:14.406Z,15.32
2017-12-12T05:27:48.482Z,14.63
2017-12-12T05:30:17.501Z,14.77
2017-12-12T05:32:45.430Z,14.70
2017-12-12T05:35:13.299Z,18.48
2017-12-12T05:40:41.884Z,15.88
2017-12-12T05:43:09.725Z,18.15
2017-12-12T05:45:37.591Z,17.05
2017-12-12T05:48:05.448Z,18.23
2017-12-12T05:50:33.312Z,15.90
2017-12-12T05:53:01.195Z,19.70
2017-12-12T05:55:29.018Z,16.55
2017-12-12T05:57:56.832Z,18.42
2017-12-12T06:00:24.640Z,18.87
2017-12-12T06:02:52.478Z,19.75
2017-12-12T06:05:20.312Z,19.17
2017-12-12T06:07:48.226Z,21.65
2017-12-12T06:10:16.113Z,20.52
2017-12-12T06:12:44.051Z,21.95
2017-12-12T06:15:11.940Z,21.00
2017-12-12T06:17:39.974Z,20.12
2017-12-12T06:20:07.827Z,21.77
2017-12-12T06:22:35.677Z,23.83
2017-12-12T06:25:03.527Z,23.83
2017-12-12T06:27:31.411Z,22.83
2017-12-12T06:30:00.988Z,24.27
2017-12-12T06:32:41.344Z,22.83
2017-12-12T06:35:09.187Z,22.50
2017-12-12T06:37:37.020Z,27.10
2017-12-12T06:40:05.141Z,23.48
2017-12-12T06:45:30.501Z,25.23
2017-12-12T06:48:11.602Z,26.10
2017-12-12T06:50:39.499Z,23.70
2017-12-12T06:53:08.700Z,26.10
2017-12-12T07:01:20.410Z,26.87
2017-12-12T07:03:48.279Z,31.90
2017-12-12T07:06:16.145Z,29.27
2017-12-12T07:08:43.972Z,35.28
2017-12-12T07:11:11.833Z,29.90
2017-12-12T07:13:39.656Z,26.70
2017-12-12T07:16:07.507Z,29.02
2017-12-12T07:18:35.333Z,31.92
2017-12-12T07:21:03.193Z,32.20
2017-12-12T07:23:31.104Z,31.42
2017-12-12T07:25:58.963Z,24.25
2017-12-12T07:28:26.816Z,30.67
2017-12-12T07:30:54.672Z,26.30
2017-12-12T07:33:22.548Z,30.83
2017-12-12T07:35:50.388Z,29.60
2017-12-12T07:38:18.255Z,28.52
2017-12-12T07:40:46.129Z,27.80
2017-12-12T07:43:14.005Z,27.85
2017-12-12T07:45:41.858Z,29.60
2017-12-12T07:48:09.777Z,27.98
2017-12-12T07:50:37.652Z,28.40
2017-12-12T07:53:05.561Z,26.92
2017-12-12T07:55:33.397Z,28.35
2017-12-12T07:58:02.154Z,25.77
2017-12-12T08:00:29.984Z,25.95
2017-12-12T08:02:57.864Z,22.65
2017-12-12T08:05:25.692Z,21.98
2017-12-12T08:07:53.563Z,22.70
2017-12-12T08:10:21.443Z,23.65
2017-12-12T08:12:49.319Z,21.95
2017-12-12T08:15:17.181Z,21.48
2017-12-12T08:17:45.052Z,24.20
2017-12-12T08:20:12.920Z,23.27
2017-12-12T08:22:40.757Z,23.55
2017-12-12T08:25:08.596Z,22.48
2017-12-12T08:27:36.396Z,21.33
2017-12-12T08:30:04.241Z,21.40
2017-12-12T08:32:32.067Z,20.10
2017-12-12T08:35:00.239Z,21.37
2017-12-12T08:37:34.092Z,21.52
2017-12-12T08:40:01.915Z,20.48
2017-12-12T08:42:29.776Z,20.75
2017-12-12T08:44:57.615Z,21.08
2017-12-12T08:47:25.440Z,20.83
2017-12-12T08:49:53.306Z,21.15
2017-12-12T08:52:21.152Z,20.85
2017-12-12T08:54:49.010Z,21.55
2017-12-12T08:57:16.848Z,19.30
2017-12-12T08:59:44.717Z,15.43
2017-12-12T09:02:12.532Z,17.35
2017-12-12T09:04:40.494Z,19.25
2017-12-12T09:07:08.338Z,18.15
2017-12-12T09:09:36.282Z,19.95
2017-12-12T09:12:04.129Z,17.73
2017-12-12T09:14:32.025Z,17.42
2017-12-12T09:16:59.870Z,18.30
2017-12-12T09:19:27.749Z,17.42
2017-12-12T09:21:55.660Z,17.48
2017-12-12T09:24:23.525Z,16.55
2017-12-12T09:26:51.349Z,15.85
2017-12-12T09:29:19.247Z,15.48
2017-12-12T09:31:47.095Z,16.48
2017-12-12T09:34:14.986Z,16.30
2017-12-12T09:36:49.654Z,17.77
2017-12-12T09:39:17.539Z,10.98
2017-12-12T09:41:45.421Z,15.48
2017-12-12T09:44:13.247Z,10.43
2017-12-12T09:46:41.181Z,16.35
2017-12-12T09:49:09.031Z,14.43
2017-12-12T09:51:36.966Z,17.77
2017-12-12T09:54:04.856Z,15.00
2017-12-12T09:56:48.082Z,15.77
2017-12-12T09:59:15.908Z,16.00
2017-12-12T10:01:43.788Z,14.65
2017-12-12T10:04:11.634Z,10.68
2017-12-12T10:06:39.549Z,15.60
2017-12-12T10:09:07.420Z,15.15
2017-12-12T10:11:35.279Z,15.80
2017-12-12T10:14:03.124Z,13.20
2017-12-12T10:16:30.971Z,11.63
2017-12-12T10:18:58.829Z,16.48
2017-12-12T10:21:27.472Z,12.25
2017-12-12T10:23:55.367Z,13.88
2017-12-12T10:26:23.213Z,15.77
2017-12-12T10:28:57.234Z,15.68
2017-12-12T10:31:25.127Z,16.83
2017-12-12T10:33:52.957Z,14.18
2017-12-12T10:36:20.761Z,15.65
2017-12-12T10:38:48.645Z,16.73
2017-12-12T10:41:16.488Z,15.30
2017-12-12T10:43:44.362Z,16.35
2017-12-12T10:46:12.215Z,14.68
2017-12-12T10:48:40.046Z,15.82
2017-12-12T10:51:07.892Z,17.75
2017-12-12T10:53:35.736Z,15.43
2017-12-12T10:56:03.576Z,15.35
2017-12-12T10:58:31.438Z,14.38
2017-12-12T11:00:59.323Z,14.60
2017-12-12T11:03:27.164Z,14.90
2017-12-12T11:05:55.054Z,16.05
2017-12-12T11:08:29.636Z,14.20
2017-12-12T11:10:57.480Z,14.43
2017-12-12T11:13:25.335Z,14.95
2017-12-12T11:15:53.166Z,15.65
2017-12-12T11:18:21.009Z,15.70
2017-12-12T11:20:48.854Z,15.68
2017-12-12T11:23:16.691Z,14.80
2017-12-12T11:25:44.554Z,13.93
2017-12-12T11:28:12.434Z,13.25
2017-12-12T11:30:40.300Z,13.18
2017-12-12T11:33:08.166Z,13.60
2017-12-12T11:35:35.994Z,13.90
2017-12-12T11:38:03.808Z,15.30
2017-12-12T11:40:31.637Z,15.65
2017-12-12T11:42:59.448Z,15.60
2017-12-12T11:45:27.300Z,16.98
2017-12-12T11:47:55.164Z,17.02
2017-12-12T11:50:23.008Z,17.10
2017-12-12T11:52:50.842Z,17.50
2017-12-12T11:55:18.680Z,17.52
2017-12-12T11:57:46.536Z,16.73
2017-12-12T12:00:14.390Z,18.65
2017-12-12T12:02:42.256Z,17.50
2017-12-12T12:05:10.122Z,16.75
2017-12-12T12:07:37.988Z,18.50
2017-12-12T12:10:05.862Z,19.48
2017-12-12T12:12:33.725Z,17.92
2017-12-12T12:15:01.611Z,18.90
2017-12-12T12:17:29.473Z,17.85
2017-12-12T12:19:57.320Z,18.17
2017-12-12T12:22:25.155Z,18.58
2017-12-12T12:24:53.022Z,18.80
2017-12-12T12:27:27.492Z,16.98
2017-12-12T12:29:55.350Z,17.58
2017-12-12T12:32:23.190Z,18.23
2017-12-12T12:34:51.020Z,17.67
2017-12-12T12:37:25.306Z,16.62
2017-12-12T12:39:53.167Z,19.48
2017-12-12T12:42:21.004Z,17.52
2017-12-12T12:44:48.904Z,16.95
2017-12-12T12:47:16.801Z,18.83
2017-12-12T12:49:44.660Z,18.33
2017-12-12T12:52:12.568Z,16.87
2017-12-12T12:54:40.437Z,17.60
2017-12-12T12:57:08.344Z,17.55
2017-12-12T12:59:36.184Z,17.70
2017-12-12T13:02:04.062Z,13.88
2017-12-12T13:04:31.909Z,17.62
2017-12-12T13:07:06.327Z,17.80
2017-12-12T13:09:34.148Z,15.35
2017-12-12T13:12:02.025Z,17.73
2017-12-12T13:14:29.908Z,18.23
2017-12-12T13:16:57.796Z,17.90
2017-12-12T13:19:25.659Z,18.60
2017-12-12T13:21:53.492Z,19.42
2017-12-12T13:24:21.337Z,18.52
2017-12-12T13:26:49.204Z,19.23
2017-12-12T13:29:17.044Z,17.00
2017-12-12T13:31:44.970Z,19.05
2017-12-12T13:34:12.855Z,20.98
2017-12-12T13:36:47.288Z,19.50
2017-12-12T13:39:15.211Z,19.15
2017-12-12T13:41:43.101Z,20.48
2017-12-12T13:44:11.070Z,19.40
2017-12-12T13:46:38.956Z,21.05
2017-12-12T13:49:06.866Z,21.17
2017-12-12T13:51:34.698Z,18.75
2017-12-12T13:54:02.527Z,18.00
2017-12-12T13:56:30.368Z,19.58
2017-12-12T13:58:58.212Z,17.87
2017-12-12T14:01:26.060Z,20.30
2017-12-12T14:03:53.919Z,18.73
2017-12-12T14:06:21.770Z,15.98
2017-12-12T14:08:49.673Z,18.35
2017-12-12T14:11:17.543Z,17.02
2017-12-12T14:16:39.509Z,15.98
2017-12-12T14:19:07.396Z,15.30
2017-12-12T14:21:36.045Z,15.55
2017-12-12T14:24:03.913Z,14.63
2017-12-12T14:26:31.808Z,15.70
2017-12-12T14:28:59.677Z,15.27
2017-12-12T14:31:27.571Z,16.48
2017-12-12T14:33:55.416Z,16.20
2017-12-12T14:36:23.260Z,16.55
2017-12-12T14:38:51.183Z,15.98
2017-12-12T14:41:19.044Z,16.50
2017-12-12T14:43:46.881Z,15.38
2017-12-12T14:46:14.752Z,14.73
2017-12-12T14:48:42.617Z,9.27
2017-12-12T14:51:10.478Z,16.58
2017-12-12T14:53:38.366Z,14.85
2017-12-12T14:56:06.232Z,16.45
2017-12-12T14:58:34.098Z,17.90
2017-12-12T15:01:01.925Z,15.10
2017-12-12T15:03:29.788Z,15.52
2017-12-12T15:05:57.657Z,14.20
2017-12-12T15:08:25.537Z,14.10
2017-12-12T15:10:53.414Z,13.02
2017-12-12T15:13:21.253Z,11.80
2017-12-12T15:15:49.120Z,14.57
2017-12-12T15:18:23.479Z,14.18
2017-12-12T15:20:51.320Z,15.00
2017-12-12T15:23:19.140Z,14.10
2017-12-12T15:25:47.005Z,11.70
2017-12-12T15:28:21.481Z,15.10
2017-12-12T15:30:49.334Z,13.68
2017-12-12T15:33:17.256Z,12.27
2017-12-12T15:35:45.173Z,9.85
2017-12-12T15:38:13.075Z,13.98
2017-12-12T15:40:40.943Z,13.65
2017-12-12T15:43:08.765Z,12.90
2017-12-12T15:45:36.672Z,11.45
2017-12-12T15:48:04.607Z,13.98
2017-12-12T15:50:32.485Z,11.98
2017-12-12T15:53:00.365Z,13.75
2017-12-12T15:55:28.230Z,11.75
2017-12-12T15:57:56.167Z,12.55
2017-12-12T16:00:24.031Z,14.43
2017-12-12T16:02:52.034Z,12.13
2017-12-12T16:05:30.120Z,12.80
2017-12-12T16:07:58.035Z,13.45
2017-12-12T16:10:25.897Z,15.27
2017-12-12T16:12:54.010Z,14.90
2017-12-12T16:15:21.896Z,12.60
2017-12-12T16:17:56.404Z,10.88
2017-12-12T16:20:24.269Z,11.05
2017-12-12T16:25:47.027Z,13.20
2017-12-12T16:28:14.895Z,16.35
2017-12-12T16:30:42.761Z,15.70
2017-12-12T16:33:10.625Z,16.90
2017-12-12T16:35:38.440Z,18.42
2017-12-12T16:38:06.291Z,16.05
2017-12-12T16:40:35.104Z,18.58
2017-12-12T16:43:02.920Z,14.20
2017-12-12T16:45:30.845Z,11.38
2017-12-12T16:51:00.161Z,18.92
2017-12-12T16:53:28.004Z,16.80
2017-12-12T16:55:55.844Z,16.87
2017-12-12T16:58:23.742Z,12.90
2017-12-12T17:00:51.587Z,19.33
2017-12-12T17:03:19.437Z,14.25
2017-12-12T17:05:47.290Z,17.40
2017-12-12T17:08:21.300Z,17.12
2017-12-12T17:11:11.591Z,16.02
2017-12-12T17:16:47.221Z,16.08
2017-12-12T17:19:15.081Z,13.55
2017-12-12T17:21:42.956Z,16.87
2017-12-12T17:24:10.817Z,17.67
2017-12-12T17:26:38.729Z,17.08
2017-12-12T17:29:06.600Z,15.48
2017-12-12T17:31:34.469Z,16.85
2017-12-12T17:34:02.352Z,13.82
2017-12-12T17:39:18.969Z,17.50
2017-12-12T17:41:46.898Z,18.25
2017-12-12T17:44:14.863Z,17.55
2017-12-12T17:46:42.831Z,18.80
2017-12-12T17:49:10.733Z,17.15
2017-12-12T17:51:38.772Z,18.12
2017-12-12T17:54:06.690Z,20.02
2017-12-12T17:56:34.594Z,15.63
2017-12-12T17:59:02.530Z,17.27
2017-12-12T18:01:30.437Z,18.25
2017-12-12T18:03:58.313Z,17.95
2017-12-12T18:06:26.250Z,10.52
2017-12-12T18:08:54.196Z,20.92
2017-12-12T18:11:22.085Z,17.10
2017-12-12T18:13:50.028Z,20.52
2017-12-12T18:16:17.908Z,17.90
2017-12-12T18:18:52.452Z,17.05
2017-12-12T18:21:20.428Z,19.80
2017-12-12T18:23:48.289Z,20.60
2017-12-12T18:26:16.176Z,18.55
2017-12-12T18:28:44.003Z,17.87
2017-12-12T18:31:11.955Z,17.15
2017-12-12T18:33:39.817Z,14.63
2017-12-12T18:36:07.707Z,16.00
2017-12-12T18:38:35.653Z,18.00
2017-12-12T18:41:03.506Z,16.52
2017-12-12T18:43:31.409Z,16.95
2017-12-12T18:45:59.341Z,17.00
2017-12-12T18:48:27.248Z,22.35
2017-12-12T18:50:55.102Z,18.42
2017-12-12T18:53:22.974Z,21.75
2017-12-12T18:55:50.896Z,21.52
2017-12-12T19:01:13.335Z,21.42
2017-12-12T19:03:41.236Z,22.75
2017-12-12T19:06:09.148Z,22.27
2017-12-12T19:08:37.036Z,21.90
2017-12-12T19:11:04.978Z,24.58
2017-12-12T19:13:32.880Z,23.45
2017-12-12T19:16:00.838Z,24.65
2017-12-12T19:18:28.785Z,20.67
2017-12-12T19:20:56.693Z,19.92
2017-12-12T19:23:24.624Z,22.20
2017-12-12T19:25:52.489Z,23.55
2017-12-12T19:28:20.433Z,20.67
2017-12-12T19:30:48.304Z,23.75
2017-12-12T19:33:16.261Z,16.75
2017-12-12T19:35:44.457Z,17.70
2017-12-12T19:38:15.312Z,22.10
2017-12-12T19:43:18.109Z,23.90
2017-12-12T19:48:50.718Z,24.90
2017-12-12T22:37:15.690Z,36.60
2017-12-12T22:39:43.534Z,40.08
2017-12-12T22:42:11.672Z,31.12
2017-12-12T22:44:39.529Z,38.67
2017-12-12T22:47:07.348Z,37.10
2017-12-12T22:49:35.207Z,31.98
2017-12-12T22:52:03.098Z,34.72
2017-12-12T22:54:30.940Z,34.08
2017-12-12T22:56:58.780Z,30.35
2017-12-12T22:59:26.636Z,34.33
2017-12-12T23:01:55.258Z,30.30
2017-12-12T23:04:23.116Z,32.35
2017-12-12T23:06:57.306Z,23.17
2017-12-12T23:09:25.144Z,31.40
2017-12-12T23:11:52.968Z,24.70
2017-12-12T23:14:20.836Z,25.25
2017-12-12T23:16:48.664Z,32.75
2017-12-12T23:19:16.492Z,36.38
2017-12-12T23:21:44.336Z,33.30
2017-12-12T23:24:12.186Z,28.90
2017-12-12T23:26:40.085Z,28.10
2017-12-12T23:29:07.938Z,31.92
2017-12-12T23:31:35.789Z,31.42
2017-12-12T23:34:03.670Z,29.00
2017-12-12T23:36:31.510Z,29.27
2017-12-12T23:38:59.379Z,25.40
2017-12-12T23:41:27.206Z,27.25
2017-12-12T23:43:55.054Z,30.80
2017-12-12T23:46:22.907Z,23.70
2017-12-12T23:48:50.776Z,30.25
2017-12-12T23:51:18.642Z,31.25
2017-12-12T23:53:46.492Z,33.72
2017-12-12T23:56:14.402Z,32.60
2017-12-12T23:58:42.285Z,25.33
